Time;durP1;ratioP1;P1;durP2;ratioP2;P2;SDS_P1;SDS_P2;PMS_P1;PMS_P2;Temp;Humidity;BMP_temperature;BMP_pressure;BME280_temperature;BME280_humidity;BME280_pressure;Samples;Min_cycle;Max_cycle;Signal;HPM_P1;HPM_P2
2024/03/03 00:01:59;;;;;;;;;17.67;17.67;;;;;;;;5079154;27;45420;-51
2024/03/03 00:04:25;;;;;;;;;22.00;20.33;;;;;;;;5068693;27;45449;-50
2024/03/03 00:06:50;;;;;;;;;15.67;15.33;;;;;;;;5079500;27;45427;-49
2024/03/03 00:09:17;;;;;;;;;24.00;19.00;;;;;;;;5073732;27;46074;-50
2024/03/03 00:11:42;;;;;;;;;22.00;20.67;;;;;;;;5078372;27;45401;-52
2024/03/03 00:14:07;;;;;;;;;23.00;20.67;;;;;;;;5081950;27;45387;-52
2024/03/03 00:16:32;;;;;;;;;21.33;20.33;;;;;;;;5084662;27;45325;-50
2024/03/03 00:18:58;;;;;;;;;22.67;22.00;;;;;;;;5078909;27;46566;-48
2024/03/03 00:21:23;;;;;;;;;27.67;23.00;;;;;;;;5078921;27;45276;-50
2024/03/03 00:23:48;;;;;;;;;24.33;22.33;;;;;;;;5072029;27;45344;-50
2024/03/03 00:26:14;;;;;;;;;31.33;26.67;;;;;;;;5074162;27;45401;-52
2024/03/03 00:28:39;;;;;;;;;27.67;27.67;;;;;;;;5079184;27;46384;-52
2024/03/03 00:31:05;;;;;;;;;27.00;25.67;;;;;;;;5074742;27;45219;-50
2024/03/03 00:33:30;;;;;;;;;31.00;27.67;;;;;;;;5077452;27;46293;-49
2024/03/03 00:35:55;;;;;;;;;23.67;23.00;;;;;;;;5079756;27;45735;-51
2024/03/03 00:38:20;;;;;;;;;31.00;27.33;;;;;;;;5078253;27;46234;-49
2024/03/03 00:40:45;;;;;;;;;33.00;29.67;;;;;;;;5084256;27;45214;-52
2024/03/03 00:43:10;;;;;;;;;30.00;27.33;;;;;;;;5078513;27;45444;-51
2024/03/03 00:45:36;;;;;;;;;29.33;27.00;;;;;;;;5083602;27;45367;-52
2024/03/03 00:48:02;;;;;;;;;32.67;27.67;;;;;;;;5074467;27;46497;-49
2024/03/03 00:50:27;;;;;;;;;29.00;27.33;;;;;;;;5083429;27;45386;-48
2024/03/03 00:52:55;;;;;;;;;32.00;24.67;;;;;;;;5084267;27;45286;-48
2024/03/03 00:55:21;;;;;;;;;27.00;25.67;;;;;;;;5088042;27;45566;-48
2024/03/03 00:57:46;;;;;;;;;28.33;27.00;;;;;;;;5080094;27;46964;-51
2024/03/03 01:00:11;;;;;;;;;27.67;27.67;;;;;;;;5087124;27;45730;-51
2024/03/03 01:02:37;;;;;;;;;29.33;29.33;;;;;;;;5086033;27;45330;-52
2024/03/03 01:05:02;;;;;;;;;28.00;26.00;;;;;;;;5084252;27;45562;-48
2024/03/03 01:07:27;;;;;;;;;25.00;23.00;;;;;;;;5088343;27;45350;-51
2024/03/03 01:09:52;;;;;;;;;37.67;29.67;;;;;;;;5077302;27;46709;-51
2024/03/03 01:12:17;;;;;;;;;32.00;29.00;;;;;;;;5082531;27;45435;-49
2024/03/03 01:14:43;;;;;;;;;29.00;25.33;;;;;;;;5083950;27;45586;-52
2024/03/03 01:17:09;;;;;;;;;30.33;25.67;;;;;;;;5086866;27;45405;-52
2024/03/03 01:19:35;;;;;;;;;37.67;29.00;;;;;;;;5086540;27;45337;-51
2024/03/03 01:22:00;;;;;;;;;29.33;28.67;;;;;;;;5085009;27;45242;-51
2024/03/03 01:24:26;;;;;;;;;39.00;33.67;;;;;;;;5075238;27;45364;-52
2024/03/03 01:26:51;;;;;;;;;37.33;33.00;;;;;;;;5084059;27;46347;-51
2024/03/03 01:29:16;;;;;;;;;36.67;33.00;;;;;;;;5079457;27;45693;-49
2024/03/03 01:31:43;;;;;;;;;36.67;33.67;;;;;;;;5088618;27;45457;-47
2024/03/03 01:34:08;;;;;;;;;33.00;31.33;;;;;;;;5075550;27;45483;-50
2024/03/03 01:36:33;;;;;;;;;35.33;32.67;;;;;;;;5090990;27;46834;-49
2024/03/03 01:38:59;;;;;;;;;32.67;31.33;;;;;;;;5088402;27;45470;-51
2024/03/03 01:41:24;;;;;;;;;32.67;32.67;;;;;;;;5079437;27;45456;-49
2024/03/03 01:43:49;;;;;;;;;34.33;32.00;;;;;;;;5084362;27;45667;-49
2024/03/03 01:46:14;;;;;;;;;40.33;35.00;;;;;;;;5082376;27;45313;-52
2024/03/03 01:48:40;;;;;;;;;32.00;32.00;;;;;;;;5086026;27;45336;-49
2024/03/03 01:51:06;;;;;;;;;33.00;30.00;;;;;;;;5081633;28;45365;-48
2024/03/03 01:53:31;;;;;;;;;38.33;31.00;;;;;;;;5083923;27;45455;-52
2024/03/03 01:55:57;;;;;;;;;39.00;31.67;;;;;;;;5076526;27;45538;-49
2024/03/03 01:58:23;;;;;;;;;23.33;22.67;;;;;;;;5080984;27;45258;-51
2024/03/03 02:00:49;;;;;;;;;25.00;23.67;;;;;;;;5083077;27;45215;-52
2024/03/03 02:03:14;;;;;;;;;22.00;21.33;;;;;;;;5080077;27;45531;-52
2024/03/03 02:05:39;;;;;;;;;26.33;23.67;;;;;;;;5082690;27;47100;-51
2024/03/03 02:08:05;;;;;;;;;19.67;19.33;;;;;;;;5080491;27;46033;-51
2024/03/03 02:10:31;;;;;;;;;19.33;19.00;;;;;;;;5086746;27;45242;-49
2024/03/03 02:12:56;;;;;;;;;26.00;21.67;;;;;;;;5081008;27;45685;-50
2024/03/03 02:15:21;;;;;;;;;23.00;21.67;;;;;;;;5080876;27;46410;-52
2024/03/03 02:17:48;;;;;;;;;22.00;21.00;;;;;;;;5080346;27;45239;-51
2024/03/03 02:20:13;;;;;;;;;18.00;15.00;;;;;;;;5079219;27;45686;-51
2024/03/03 02:22:38;;;;;;;;;22.00;17.67;;;;;;;;5077567;27;45646;-50
2024/03/03 02:25:04;;;;;;;;;16.00;13.00;;;;;;;;5082510;27;45548;-52
2024/03/03 02:27:31;;;;;;;;;22.67;17.00;;;;;;;;5086947;27;45342;-51
2024/03/03 02:29:56;;;;;;;;;21.33;18.67;;;;;;;;5078665;27;45405;-52
2024/03/03 02:32:21;;;;;;;;;14.00;14.00;;;;;;;;5083269;27;45764;-52
2024/03/03 02:34:46;;;;;;;;;24.00;20.00;;;;;;;;5080627;27;47147;-53
2024/03/03 02:37:12;;;;;;;;;22.67;16.33;;;;;;;;5080687;27;45380;-49
2024/03/03 02:39:37;;;;;;;;;15.67;13.33;;;;;;;;5077193;27;45235;-53
2024/03/03 02:42:02;;;;;;;;;15.33;14.00;;;;;;;;5074760;27;45427;-48
2024/03/03 02:44:27;;;;;;;;;13.67;12.00;;;;;;;;5081225;27;46279;-50
2024/03/03 02:46:52;;;;;;;;;6.67;4.33;;;;;;;;5082304;27;45252;-48
2024/03/03 02:49:18;;;;;;;;;14.33;13.33;;;;;;;;5079919;27;45358;-52
2024/03/03 02:51:43;;;;;;;;;15.33;12.00;;;;;;;;5081981;27;45499;-52
2024/03/03 02:54:08;;;;;;;;;14.67;13.00;;;;;;;;5080866;27;45874;-50
2024/03/03 02:56:33;;;;;;;;;13.00;11.00;;;;;;;;5079744;27;45319;-51
2024/03/03 02:58:58;;;;;;;;;13.67;12.67;;;;;;;;5083348;27;45452;-48
2024/03/03 03:01:24;;;;;;;;;13.00;13.00;;;;;;;;5080656;27;45485;-51
2024/03/03 03:03:49;;;;;;;;;16.33;13.67;;;;;;;;5080520;27;45219;-51
2024/03/03 03:06:14;;;;;;;;;13.00;13.00;;;;;;;;5081447;27;45417;-51
2024/03/03 03:08:39;;;;;;;;;15.33;13.33;;;;;;;;5082741;27;45255;-52
2024/03/03 03:11:05;;;;;;;;;17.33;15.00;;;;;;;;5080063;27;45307;-52
2024/03/03 03:13:30;;;;;;;;;11.00;11.00;;;;;;;;5080224;27;46367;-52
2024/03/03 03:15:56;;;;;;;;;16.00;14.00;;;;;;;;5081067;27;45504;-52
2024/03/03 03:18:21;;;;;;;;;12.00;12.00;;;;;;;;5081212;27;45525;-52
2024/03/03 03:20:46;;;;;;;;;16.00;14.00;;;;;;;;5082323;27;45241;-50
2024/03/03 03:23:11;;;;;;;;;14.00;13.00;;;;;;;;5077569;27;46111;-51
2024/03/03 03:25:36;;;;;;;;;13.67;13.67;;;;;;;;5081923;27;45418;-53
2024/03/03 03:28:02;;;;;;;;;16.67;12.33;;;;;;;;5080513;27;45399;-51
2024/03/03 03:30:27;;;;;;;;;16.33;12.33;;;;;;;;5077786;27;45530;-50
2024/03/03 03:32:52;;;;;;;;;14.67;13.33;;;;;;;;5073830;27;45345;-52
2024/03/03 03:35:17;;;;;;;;;14.33;14.00;;;;;;;;5079087;27;45462;-52
2024/03/03 03:37:43;;;;;;;;;16.33;15.33;;;;;;;;5079097;27;45294;-49
2024/03/03 03:40:09;;;;;;;;;16.33;13.33;;;;;;;;5078120;27;45436;-50
2024/03/03 03:42:35;;;;;;;;;15.00;13.00;;;;;;;;5078133;27;46139;-49
2024/03/03 03:45:00;;;;;;;;;15.33;14.33;;;;;;;;5079946;27;45321;-51
2024/03/03 03:47:25;;;;;;;;;14.33;14.00;;;;;;;;5078382;27;45460;-52
2024/03/03 03:49:50;;;;;;;;;18.33;16.00;;;;;;;;5080782;27;45466;-52
2024/03/03 03:52:15;;;;;;;;;16.00;15.67;;;;;;;;5088015;27;45477;-49
2024/03/03 03:54:41;;;;;;;;;16.00;14.33;;;;;;;;5080906;27;45374;-49
2024/03/03 03:57:06;;;;;;;;;16.00;14.33;;;;;;;;5080905;27;45412;-52
2024/03/03 03:59:31;;;;;;;;;20.50;13.50;;;;;;;;5080569;27;45330;-50
2024/03/03 04:01:56;;;;;;;;;20.67;16.00;;;;;;;;5080142;27;46524;-50
2024/03/03 04:04:22;;;;;;;;;18.67;12.67;;;;;;;;5076904;27;45558;-52
2024/03/03 04:06:47;;;;;;;;;17.33;15.00;;;;;;;;5087694;27;46051;-52
2024/03/03 04:09:12;;;;;;;;;14.00;12.67;;;;;;;;5080802;27;45266;-49
2024/03/03 04:11:37;;;;;;;;;19.00;16.00;;;;;;;;5081765;27;45323;-49
2024/03/03 04:14:03;;;;;;;;;15.33;13.33;;;;;;;;5079426;27;45281;-48
2024/03/03 04:16:28;;;;;;;;;12.00;11.67;;;;;;;;5080675;27;45473;-50
2024/03/03 04:18:53;;;;;;;;;14.00;14.00;;;;;;;;5078713;27;45524;-51
2024/03/03 04:21:19;;;;;;;;;14.33;13.00;;;;;;;;5078606;27;46284;-49
2024/03/03 04:23:44;;;;;;;;;18.33;17.33;;;;;;;;5079481;27;45518;-52
2024/03/03 04:26:09;;;;;;;;;21.00;17.67;;;;;;;;5080060;27;45310;-48
2024/03/03 04:28:35;;;;;;;;;12.67;12.67;;;;;;;;5080941;27;45541;-49
2024/03/03 04:31:06;;;;;;;;;20.00;18.33;;;;;;;;5085387;27;46893;-51
2024/03/03 04:33:31;;;;;;;;;14.67;14.67;;;;;;;;5082549;27;45914;-52
2024/03/03 04:35:57;;;;;;;;;18.00;16.00;;;;;;;;5079501;27;45240;-50
2024/03/03 04:38:22;;;;;;;;;19.67;15.00;;;;;;;;5080079;27;45284;-52
2024/03/03 04:40:47;;;;;;;;;20.33;17.67;;;;;;;;5081820;27;46699;-50
2024/03/03 04:43:12;;;;;;;;;15.00;15.00;;;;;;;;5090119;27;45345;-51
2024/03/03 04:45:37;;;;;;;;;17.67;17.67;;;;;;;;5076431;27;45504;-52
2024/03/03 04:48:03;;;;;;;;;16.33;16.33;;;;;;;;5079828;27;45409;-52
2024/03/03 04:50:28;;;;;;;;;18.33;17.67;;;;;;;;5088207;27;46917;-52
2024/03/03 04:52:53;;;;;;;;;21.67;18.33;;;;;;;;5089963;27;45382;-52
2024/03/03 04:55:19;;;;;;;;;22.00;18.33;;;;;;;;5078944;27;45305;-51
2024/03/03 04:57:44;;;;;;;;;14.67;14.67;;;;;;;;5078924;27;45587;-52
2024/03/03 05:00:10;;;;;;;;;14.67;13.67;;;;;;;;5078669;27;46053;-51
2024/03/03 05:02:35;;;;;;;;;20.00;13.67;;;;;;;;5086659;27;45271;-51
2024/03/03 05:05:00;;;;;;;;;18.33;15.67;;;;;;;;5075384;27;45405;-48
2024/03/03 05:07:27;;;;;;;;;21.33;14.33;;;;;;;;5081762;27;45206;-50
2024/03/03 05:09:52;;;;;;;;;17.33;17.33;;;;;;;;5077721;27;47019;-51
2024/03/03 05:12:17;;;;;;;;;16.00;15.33;;;;;;;;5075634;27;45401;-52
2024/03/03 05:14:43;;;;;;;;;22.67;20.33;;;;;;;;5080932;27;45267;-52
2024/03/03 05:17:08;;;;;;;;;20.33;15.67;;;;;;;;5078450;27;45308;-52
2024/03/03 05:19:33;;;;;;;;;21.33;19.33;;;;;;;;5075741;27;46114;-52
2024/03/03 05:21:58;;;;;;;;;18.67;17.00;;;;;;;;5078015;27;46403;-52
2024/03/03 05:24:24;;;;;;;;;17.00;14.67;;;;;;;;5087381;27;45346;-52
2024/03/03 05:26:50;;;;;;;;;17.33;16.00;;;;;;;;5085109;27;45283;-52
2024/03/03 05:29:16;;;;;;;;;14.67;14.67;;;;;;;;5078280;27;46032;-52
2024/03/03 05:31:42;;;;;;;;;17.33;14.67;;;;;;;;5079873;27;45425;-52
2024/03/03 05:34:13;;;;;;;;;14.67;14.33;;;;;;;;5078361;27;45730;-52
2024/03/03 05:36:40;;;;;;;;;21.33;18.67;;;;;;;;5075682;27;45939;-51
2024/03/03 05:39:05;;;;;;;;;16.00;14.33;;;;;;;;5082033;27;46514;-48
2024/03/03 05:41:30;;;;;;;;;20.33;16.67;;;;;;;;5087336;27;45471;-48
2024/03/03 05:43:56;;;;;;;;;29.00;19.33;;;;;;;;5086460;27;45301;-52
2024/03/03 05:46:21;;;;;;;;;19.00;18.33;;;;;;;;5084396;27;45365;-49
2024/03/03 05:48:46;;;;;;;;;25.67;20.00;;;;;;;;5081488;27;46420;-49
2024/03/03 05:51:12;;;;;;;;;24.67;23.00;;;;;;;;5083440;27;45221;-52
2024/03/03 05:53:37;;;;;;;;;22.67;22.67;;;;;;;;5087574;27;45940;-49
2024/03/03 05:56:02;;;;;;;;;21.33;17.33;;;;;;;;5088694;27;45427;-52
2024/03/03 05:58:28;;;;;;;;;20.67;18.00;;;;;;;;5081048;27;45486;-51
2024/03/03 06:00:53;;;;;;;;;26.67;21.33;;;;;;;;5086707;27;45350;-49
2024/03/03 06:03:18;;;;;;;;;22.00;22.00;;;;;;;;5083947;27;45573;-49
2024/03/03 06:05:43;;;;;;;;;22.00;22.00;;;;;;;;5089967;27;45204;-50
2024/03/03 06:08:08;;;;;;;;;26.00;21.00;;;;;;;;5082291;27;46359;-49
2024/03/03 06:10:34;;;;;;;;;27.67;24.00;;;;;;;;5087209;27;45277;-53
2024/03/03 06:12:59;;;;;;;;;19.33;18.33;;;;;;;;5085610;27;45392;-53
2024/03/03 06:15:24;;;;;;;;;24.00;22.00;;;;;;;;5086464;27;45542;-50
2024/03/03 06:17:49;;;;;;;;;21.33;20.33;;;;;;;;5085498;27;46746;-51
2024/03/03 06:20:14;;;;;;;;;20.67;18.33;;;;;;;;5086748;27;45301;-49
2024/03/03 06:22:40;;;;;;;;;23.67;23.33;;;;;;;;5091474;27;45374;-53
2024/03/03 06:25:06;;;;;;;;;27.00;24.00;;;;;;;;5090369;27;45303;-52
2024/03/03 06:27:31;;;;;;;;;27.67;21.00;;;;;;;;5089237;27;46458;-48
2024/03/03 06:29:56;;;;;;;;;23.00;22.00;;;;;;;;5084874;27;45562;-50
2024/03/03 06:32:22;;;;;;;;;29.33;25.00;;;;;;;;5086791;27;45657;-49
2024/03/03 06:34:49;;;;;;;;;28.00;25.00;;;;;;;;5078258;27;45424;-49
2024/03/03 06:37:15;;;;;;;;;26.67;23.33;;;;;;;;5083889;27;47116;-52
2024/03/03 06:39:42;;;;;;;;;22.33;21.00;;;;;;;;5084740;27;45353;-52
2024/03/03 06:42:08;;;;;;;;;32.33;26.67;;;;;;;;5085313;27;45548;-52
2024/03/03 06:44:33;;;;;;;;;26.00;25.67;;;;;;;;5085419;27;45507;-51
2024/03/03 06:46:58;;;;;;;;;26.67;21.00;;;;;;;;5086906;27;45370;-49
2024/03/03 06:49:23;;;;;;;;;20.67;20.67;;;;;;;;5079760;27;45547;-51
2024/03/03 06:51:48;;;;;;;;;22.67;20.33;;;;;;;;5086937;27;45413;-50
2024/03/03 06:54:13;;;;;;;;;25.67;22.00;;;;;;;;5085170;27;45410;-48
2024/03/03 06:56:39;;;;;;;;;23.67;21.33;;;;;;;;5086209;27;45650;-48
2024/03/03 06:59:04;;;;;;;;;25.33;22.33;;;;;;;;5082036;27;45946;-49
2024/03/03 07:01:30;;;;;;;;;28.00;23.33;;;;;;;;5087304;27;45358;-50
2024/03/03 07:04:10;;;;;;;;;28.33;23.33;;;;;;;;5088034;27;45414;-50
2024/03/03 07:06:36;;;;;;;;;25.00;21.67;;;;;;;;5082684;27;47107;-49
2024/03/03 07:09:02;;;;;;;;;25.00;23.00;;;;;;;;5076887;27;45730;-51
2024/03/03 07:11:27;;;;;;;;;22.00;22.00;;;;;;;;5079818;27;45306;-52
2024/03/03 07:13:52;;;;;;;;;31.00;25.67;;;;;;;;5091852;27;45377;-52
2024/03/03 07:16:18;;;;;;;;;23.67;21.33;;;;;;;;5089828;27;46149;-49
2024/03/03 07:18:44;;;;;;;;;21.33;19.00;;;;;;;;5075720;27;46358;-52
2024/03/03 07:21:09;;;;;;;;;22.00;19.00;;;;;;;;5083841;27;45691;-49
2024/03/03 07:23:35;;;;;;;;;28.00;27.00;;;;;;;;5080164;27;45215;-51
2024/03/03 07:26:00;;;;;;;;;31.33;24.33;;;;;;;;5082089;27;46903;-47
2024/03/03 07:28:25;;;;;;;;;23.00;22.00;;;;;;;;5081679;27;45680;-51
2024/03/03 07:30:51;;;;;;;;;28.67;27.00;;;;;;;;5081413;27;45404;-52
2024/03/03 07:33:16;;;;;;;;;28.33;24.33;;;;;;;;5081550;27;45537;-52
2024/03/03 07:35:41;;;;;;;;;31.33;25.67;;;;;;;;5083147;27;46075;-49
2024/03/03 07:38:06;;;;;;;;;30.33;22.33;;;;;;;;5083438;27;45380;-52
2024/03/03 07:40:36;;;;;;;;;22.67;21.67;;;;;;;;5079515;27;45535;-52
2024/03/03 07:43:02;;;;;;;;;25.00;23.33;;;;;;;;5081923;27;45459;-49
2024/03/03 07:45:27;;;;;;;;;28.33;24.00;;;;;;;;5076309;27;46019;-50
2024/03/03 07:47:53;;;;;;;;;25.33;24.00;;;;;;;;5079425;27;45313;-51
2024/03/03 07:50:18;;;;;;;;;30.67;25.67;;;;;;;;5079863;27;45778;-50
2024/03/03 07:52:43;;;;;;;;;20.67;20.67;;;;;;;;5086216;27;45288;-50
2024/03/03 07:55:08;;;;;;;;;23.67;20.33;;;;;;;;5079063;27;45608;-49
2024/03/03 07:57:33;;;;;;;;;26.00;24.00;;;;;;;;5074665;27;45884;-49
2024/03/03 07:59:59;;;;;;;;;25.67;22.00;;;;;;;;5073622;27;45371;-51
2024/03/03 08:02:24;;;;;;;;;30.00;21.33;;;;;;;;5084228;27;45511;-49
2024/03/03 08:04:52;;;;;;;;;26.33;25.33;;;;;;;;5084231;27;46836;-51
2024/03/03 08:07:18;;;;;;;;;24.33;21.00;;;;;;;;5078127;27;45340;-49
2024/03/03 08:09:43;;;;;;;;;22.00;21.33;;;;;;;;5080268;27;45400;-51
2024/03/03 08:12:08;;;;;;;;;27.00;23.00;;;;;;;;5071023;27;45291;-52
2024/03/03 08:14:33;;;;;;;;;23.33;21.67;;;;;;;;5080184;27;46723;-53
2024/03/03 08:16:58;;;;;;;;;27.67;23.33;;;;;;;;5080782;27;45531;-49
2024/03/03 08:19:26;;;;;;;;;24.00;23.33;;;;;;;;5077274;27;45520;-49
2024/03/03 08:21:51;;;;;;;;;26.33;24.00;;;;;;;;5075226;27;45669;-52
2024/03/03 08:24:17;;;;;;;;;28.67;26.67;;;;;;;;5074061;27;46024;-49
2024/03/03 08:26:46;;;;;;;;;28.33;25.00;;;;;;;;5079244;27;45457;-51
2024/03/03 08:29:11;;;;;;;;;27.00;23.33;;;;;;;;5082856;27;45243;-51
2024/03/03 08:31:41;;;;;;;;;27.00;26.00;;;;;;;;5078333;27;45465;-53
2024/03/03 08:34:06;;;;;;;;;31.00;26.00;;;;;;;;5073593;27;45941;-52
2024/03/03 08:36:31;;;;;;;;;24.00;22.00;;;;;;;;5067892;27;45736;-53
2024/03/03 08:38:57;;;;;;;;;31.00;25.00;;;;;;;;5075678;27;45317;-52
2024/03/03 08:41:22;;;;;;;;;24.33;24.00;;;;;;;;5075122;27;45418;-49
2024/03/03 08:43:47;;;;;;;;;29.67;29.67;;;;;;;;5073003;27;45567;-51
2024/03/03 08:46:12;;;;;;;;;31.67;25.00;;;;;;;;5074615;27;45301;-52
2024/03/03 08:48:37;;;;;;;;;30.00;25.33;;;;;;;;5073204;27;45643;-53
2024/03/03 08:51:06;;;;;;;;;26.00;23.33;;;;;;;;5075786;27;46636;-53
2024/03/03 08:53:32;;;;;;;;;24.33;23.33;;;;;;;;5083491;27;45616;-54
2024/03/03 08:55:57;;;;;;;;;28.00;24.33;;;;;;;;5076419;28;45605;-52
2024/03/03 08:58:22;;;;;;;;;23.33;23.00;;;;;;;;5077189;27;45448;-51
2024/03/03 09:00:48;;;;;;;;;26.33;23.00;;;;;;;;5078657;27;45478;-52
2024/03/03 09:03:14;;;;;;;;;22.33;20.67;;;;;;;;5075285;27;45670;-49
2024/03/03 09:05:39;;;;;;;;;22.00;21.00;;;;;;;;5074649;27;45732;-50
2024/03/03 09:08:04;;;;;;;;;24.33;17.00;;;;;;;;5077812;27;45648;-52
2024/03/03 09:10:29;;;;;;;;;26.00;24.00;;;;;;;;5082348;27;45377;-53
2024/03/03 09:12:55;;;;;;;;;31.67;23.67;;;;;;;;5074851;27;47954;-52
2024/03/03 09:15:20;;;;;;;;;26.33;23.00;;;;;;;;5078195;27;45447;-52
2024/03/03 09:17:45;;;;;;;;;26.33;23.67;;;;;;;;5081487;27;45511;-52
2024/03/03 09:20:11;;;;;;;;;28.33;23.33;;;;;;;;5075708;27;45432;-51
2024/03/03 09:22:36;;;;;;;;;25.33;22.33;;;;;;;;5078020;27;45445;-48
2024/03/03 09:25:02;;;;;;;;;23.67;18.00;;;;;;;;5083645;27;45429;-47
2024/03/03 09:27:27;;;;;;;;;21.33;19.00;;;;;;;;5079819;27;45484;-48
2024/03/03 09:29:52;;;;;;;;;16.67;16.00;;;;;;;;5081214;27;45366;-49
2024/03/03 09:32:17;;;;;;;;;21.33;14.67;;;;;;;;5079015;27;45663;-53
2024/03/03 09:34:43;;;;;;;;;19.67;15.67;;;;;;;;5079112;27;46573;-51
2024/03/03 09:37:11;;;;;;;;;20.67;14.33;;;;;;;;5079790;27;45470;-54
2024/03/03 09:39:36;;;;;;;;;19.00;16.33;;;;;;;;5079556;27;45687;-50
2024/03/03 09:42:02;;;;;;;;;14.67;14.33;;;;;;;;5080139;27;45271;-52
2024/03/03 09:44:33;;;;;;;;;20.67;19.00;;;;;;;;5084982;27;45459;-51
2024/03/03 09:46:58;;;;;;;;;19.33;16.00;;;;;;;;5084776;27;46676;-49
2024/03/03 09:49:24;;;;;;;;;15.33;15.33;;;;;;;;5081115;27;45646;-49
2024/03/03 09:51:49;;;;;;;;;20.67;18.00;;;;;;;;5078070;27;45511;-51
2024/03/03 09:54:15;;;;;;;;;22.67;18.67;;;;;;;;5077409;27;45603;-50
2024/03/03 09:56:44;;;;;;;;;23.00;18.67;;;;;;;;5075479;27;45544;-49
2024/03/03 09:59:10;;;;;;;;;8.67;6.67;;;;;;;;5075771;27;45446;-47
2024/03/03 10:01:37;;;;;;;;;19.00;15.67;;;;;;;;5075195;28;46931;-49
2024/03/03 10:04:04;;;;;;;;;21.00;18.67;;;;;;;;5071512;28;45315;-46
2024/03/03 10:06:31;;;;;;;;;23.00;16.67;;;;;;;;5085973;27;45453;-47
2024/03/03 10:08:56;;;;;;;;;20.33;17.33;;;;;;;;5068256;27;45527;-50
2024/03/03 10:11:23;;;;;;;;;17.67;15.00;;;;;;;;5075775;28;46113;-48
2024/03/03 10:13:48;;;;;;;;;18.67;17.00;;;;;;;;5077765;27;45438;-49
2024/03/03 10:16:14;;;;;;;;;21.00;18.67;;;;;;;;5078289;28;45282;-47
2024/03/03 10:18:39;;;;;;;;;18.00;18.00;;;;;;;;5077485;28;45647;-47
2024/03/03 10:21:05;;;;;;;;;17.67;17.67;;;;;;;;5077715;27;45437;-48
2024/03/03 10:23:32;;;;;;;;;9.33;9.33;;;;;;;;5081029;27;45251;-47
2024/03/03 10:25:58;;;;;;;;;19.00;17.33;;;;;;;;5079273;28;45342;-48
2024/03/03 10:28:23;;;;;;;;;22.00;19.33;;;;;;;;5080285;27;45536;-48
2024/03/03 10:30:48;;;;;;;;;18.33;18.00;;;;;;;;5081064;27;46048;-49
2024/03/03 10:33:14;;;;;;;;;20.67;16.33;;;;;;;;5079835;28;45290;-48
2024/03/03 10:35:39;;;;;;;;;23.33;19.00;;;;;;;;5081446;27;45372;-49
2024/03/03 10:38:07;;;;;;;;;19.00;16.67;;;;;;;;5078887;27;45505;-47
2024/03/03 10:40:33;;;;;;;;;18.33;15.00;;;;;;;;5080797;27;46356;-48
2024/03/03 10:42:58;;;;;;;;;19.67;18.00;;;;;;;;5079545;28;45351;-48
2024/03/03 10:45:24;;;;;;;;;22.67;17.67;;;;;;;;5079597;27;45421;-49
2024/03/03 10:47:49;;;;;;;;;9.00;9.00;;;;;;;;5079604;27;45372;-51
2024/03/03 10:50:15;;;;;;;;;16.67;15.33;;;;;;;;5079377;27;45498;-48
2024/03/03 10:52:40;;;;;;;;;22.00;18.33;;;;;;;;5076181;27;46031;-48
2024/03/03 10:55:08;;;;;;;;;20.33;18.67;;;;;;;;5079297;28;45378;-47
2024/03/03 10:57:34;;;;;;;;;22.67;18.33;;;;;;;;5080490;27;45307;-48
2024/03/03 11:00:01;;;;;;;;;18.33;18.00;;;;;;;;5078373;27;46190;-51
2024/03/03 11:02:30;;;;;;;;;21.67;18.67;;;;;;;;5081618;27;45316;-47
2024/03/03 11:04:55;;;;;;;;;21.33;15.33;;;;;;;;5079050;27;45412;-53
2024/03/03 11:07:21;;;;;;;;;26.00;22.33;;;;;;;;5087279;27;45457;-50
2024/03/03 11:09:48;;;;;;;;;21.67;18.67;;;;;;;;5081399;27;46233;-47
2024/03/03 11:12:15;;;;;;;;;24.67;18.67;;;;;;;;5085446;27;45264;-46
2024/03/03 11:14:44;;;;;;;;;20.00;16.33;;;;;;;;5079984;27;45224;-46
2024/03/03 11:17:13;;;;;;;;;12.67;12.67;;;;;;;;5084466;27;45337;-47
2024/03/03 11:19:41;;;;;;;;;12.00;11.33;;;;;;;;5084369;27;47184;-51
2024/03/03 11:22:11;;;;;;;;;15.67;11.00;;;;;;;;5083392;27;45272;-47
2024/03/03 11:24:41;;;;;;;;;13.00;8.67;;;;;;;;5085945;27;45407;-49
2024/03/03 11:27:12;;;;;;;;;13.00;9.33;;;;;;;;5082053;27;45238;-51
2024/03/03 11:29:38;;;;;;;;;9.67;8.33;;;;;;;;5086528;27;46540;-50
2024/03/03 11:32:03;;;;;;;;;8.00;7.67;;;;;;;;5083151;27;45378;-52
2024/03/03 11:34:30;;;;;;;;;8.67;8.00;;;;;;;;5083422;27;45263;-49
2024/03/03 11:36:55;;;;;;;;;8.00;8.00;;;;;;;;5080430;27;45404;-53
2024/03/03 11:39:21;;;;;;;;;8.33;8.33;;;;;;;;5082139;27;45445;-52
2024/03/03 11:41:46;;;;;;;;;9.33;9.33;;;;;;;;5083075;27;45161;-50
2024/03/03 11:44:30;;;;;;;;;10.00;8.00;;;;;;;;5084365;27;45334;-51
2024/03/03 11:46:56;;;;;;;;;12.00;11.00;;;;;;;;5083192;27;45636;-51
2024/03/03 11:49:24;;;;;;;;;10.00;10.00;;;;;;;;5084850;27;45337;-48
2024/03/03 11:51:49;;;;;;;;;9.33;8.33;;;;;;;;5083136;27;45599;-51
2024/03/03 11:54:28;;;;;;;;;11.33;10.00;;;;;;;;5083900;27;45420;-50
2024/03/03 11:56:56;;;;;;;;;12.00;10.33;;;;;;;;5082978;27;45311;-49
2024/03/03 11:59:24;;;;;;;;;13.33;10.67;;;;;;;;5082943;27;46620;-48
2024/03/03 12:01:50;;;;;;;;;11.67;10.00;;;;;;;;5077573;27;45444;-50
2024/03/03 12:04:15;;;;;;;;;10.00;8.00;;;;;;;;5079161;27;45422;-53
2024/03/03 12:06:42;;;;;;;;;10.00;9.00;;;;;;;;5080653;27;45394;-51
2024/03/03 12:09:09;;;;;;;;;11.00;8.67;;;;;;;;5082671;27;45369;-51
2024/03/03 12:11:34;;;;;;;;;14.00;11.00;;;;;;;;5083721;27;45527;-49
2024/03/03 12:13:59;;;;;;;;;12.67;9.00;;;;;;;;5083646;27;45554;-52
2024/03/03 12:16:25;;;;;;;;;12.00;11.00;;;;;;;;5084029;27;45380;-50
2024/03/03 12:18:50;;;;;;;;;10.67;10.00;;;;;;;;5083468;27;45372;-51
2024/03/03 12:21:16;;;;;;;;;12.33;10.67;;;;;;;;5083672;27;45241;-50
2024/03/03 12:23:42;;;;;;;;;9.67;9.33;;;;;;;;5083917;27;45402;-49
2024/03/03 12:26:07;;;;;;;;;9.00;8.00;;;;;;;;5083222;27;45497;-51
2024/03/03 12:28:32;;;;;;;;;8.33;7.33;;;;;;;;5083367;27;46029;-50
2024/03/03 12:30:58;;;;;;;;;7.00;7.00;;;;;;;;5082138;27;45310;-51
2024/03/03 12:33:24;;;;;;;;;12.00;10.67;;;;;;;;5082740;27;45500;-49
2024/03/03 12:35:50;;;;;;;;;6.67;6.67;;;;;;;;5082226;27;45327;-50
2024/03/03 12:38:16;;;;;;;;;12.67;7.00;;;;;;;;5078899;27;46118;-50
2024/03/03 12:40:41;;;;;;;;;7.33;7.33;;;;;;;;5083468;27;45545;-52
2024/03/03 12:43:11;;;;;;;;;7.00;7.00;;;;;;;;5083749;27;45421;-52
2024/03/03 12:45:36;;;;;;;;;6.67;5.67;;;;;;;;5084650;27;45318;-49
2024/03/03 12:48:05;;;;;;;;;8.33;7.00;;;;;;;;5082522;27;46482;-49
2024/03/03 12:50:30;;;;;;;;;8.33;8.00;;;;;;;;5084846;27;45334;-51
2024/03/03 12:52:56;;;;;;;;;7.33;7.33;;;;;;;;5083278;27;45378;-52
2024/03/03 12:55:25;;;;;;;;;6.00;6.00;;;;;;;;5078300;27;45914;-52
2024/03/03 12:57:51;;;;;;;;;6.00;6.00;;;;;;;;5082169;27;46398;-51
2024/03/03 13:00:16;;;;;;;;;7.67;7.67;;;;;;;;5082600;27;45491;-50
2024/03/03 13:02:42;;;;;;;;;5.33;5.33;;;;;;;;5069588;27;45307;-49
2024/03/03 13:05:10;;;;;;;;;4.33;4.00;;;;;;;;5078746;27;45405;-49
2024/03/03 13:07:35;;;;;;;;;6.33;6.33;;;;;;;;5080966;27;45831;-52
2024/03/03 13:10:12;;;;;;;;;8.33;7.67;;;;;;;;5081129;27;45518;-49
2024/03/03 13:12:37;;;;;;;;;9.00;8.00;;;;;;;;5081110;27;45368;-50
2024/03/03 13:15:02;;;;;;;;;7.67;5.67;;;;;;;;5083839;27;45537;-50
2024/03/03 13:17:28;;;;;;;;;7.67;7.67;;;;;;;;5082046;27;46083;-51
2024/03/03 13:19:54;;;;;;;;;8.33;7.00;;;;;;;;5084870;27;45247;-48
2024/03/03 13:22:20;;;;;;;;;7.00;7.00;;;;;;;;5081815;27;45372;-49
2024/03/03 13:24:55;;;;;;;;;8.67;6.67;;;;;;;;5085727;27;45223;-53
2024/03/03 13:27:22;;;;;;;;;6.00;6.00;;;;;;;;5081529;27;45476;-48
2024/03/03 13:29:48;;;;;;;;;6.67;5.33;;;;;;;;5086012;27;45282;-50
2024/03/03 13:32:13;;;;;;;;;7.00;7.00;;;;;;;;5080821;27;45446;-52
2024/03/03 13:34:39;;;;;;;;;6.33;6.33;;;;;;;;5084913;27;45346;-51
2024/03/03 13:37:04;;;;;;;;;6.00;6.00;;;;;;;;5081889;27;46153;-49
2024/03/03 13:39:29;;;;;;;;;6.00;6.00;;;;;;;;5086031;27;45424;-49
2024/03/03 13:41:55;;;;;;;;;6.67;5.67;;;;;;;;5077125;27;45610;-52
2024/03/03 13:44:20;;;;;;;;;7.00;5.33;;;;;;;;5084372;27;45298;-49
2024/03/03 13:46:45;;;;;;;;;6.67;6.67;;;;;;;;5079916;27;46000;-50
2024/03/03 13:49:14;;;;;;;;;6.00;6.00;;;;;;;;5086960;27;45216;-52
2024/03/03 13:51:39;;;;;;;;;9.00;6.67;;;;;;;;5083148;27;45291;-51
2024/03/03 13:54:04;;;;;;;;;8.00;7.67;;;;;;;;5082206;27;45641;-51
2024/03/03 13:56:30;;;;;;;;;5.67;5.67;;;;;;;;5081044;27;45443;-49
2024/03/03 13:58:55;;;;;;;;;6.00;6.00;;;;;;;;5084301;27;45365;-53
2024/03/03 14:01:20;;;;;;;;;5.00;5.00;;;;;;;;5080711;27;45296;-52
2024/03/03 14:03:45;;;;;;;;;7.00;5.00;;;;;;;;5079975;27;45312;-53
2024/03/03 14:06:11;;;;;;;;;3.67;3.67;;;;;;;;5080417;27;46388;-50
2024/03/03 14:08:36;;;;;;;;;5.33;5.33;;;;;;;;5083856;27;45335;-50
2024/03/03 14:11:01;;;;;;;;;6.33;5.00;;;;;;;;5078254;28;45299;-51
2024/03/03 14:13:26;;;;;;;;;6.00;6.00;;;;;;;;5084371;27;45678;-50